Nearby METAR Reports

 

KMTN - Baltimore/Martin, Maryland, USA
Distance from station: SSE 8mi, 13km
Updated: Tue, 03-Mar-2015 5:55am EST
Mostly cloudy
Mostly cloudy
 Wind from calm
Wind: Calm
Temperature: 28°F , -2°C
Dew Point: 18°F , -8°C
Humidity: 64%
Barometer: 30.46 inHg , 1031.5 hPa
Clouds: Mostly cloudy
Visibility: 10 miles , 16 km
Cloud details: Mostly cloudy 10000 ft
2015/03/03 10:55 KMTN 031055Z 00000KT 10SM BKN100 M02/M08 A3046 RMK FIRST
KDMH - Baltimore/Dwntwn, Maryland, USA
Distance from station: SW 12mi, 19km
Updated: Tue, 03-Mar-2015 5:54am EST

 
Temperature: 1°F , -17°C
Barometer: 30.44 inHg , 1030.8 hPa
2015/03/03 10:54 KDMH 031054Z AUTO M17/ A3044 RMK AO1 SLP306 T1172 $
 
KBWI - Balto/Wash Intl, Maryland, USA
Distance from station: SSW 20mi, 33km
Updated: Tue, 03-Mar-2015 5:54am EST
Overcast
Overcast
 Wind from calm
Wind: Calm
Temperature: 28°F , -2°C
Dew Point: 14°F , -10°C
Humidity: 55%
Barometer: 30.43 inHg , 1030.5 hPa
Clouds: Overcast
Visibility: 10 miles , 16 km
Cloud details: Few Clouds 8000 ft
Overcast 14000 ft
2015/03/03 10:54 KBWI 031054Z 00000KT 10SM FEW080 OVC140 M02/M10 A3043 RMK AO2 SLP305 T10221100
KDMW - Carroll Cnty, Maryland, USA
Distance from station: WNW 30mi, 48km
Updated: Tue, 03-Mar-2015 5:55am EST
Mostly cloudy
Mostly cloudy
 Wind from calm
Wind: Calm
Temperature: 25°F , -4°C
Dew Point: 14°F , -10°C
Humidity: 63%
Barometer: 30.39 inHg , 1029.1 hPa
Clouds: Mostly cloudy
Visibility: 10 miles , 16 km
Cloud details: Mostly cloudy 11000 ft
2015/03/03 10:55 KDMW 031055Z AUTO 00000KT 10SM BKN110 M04/M10 A3039 RMK AO2
 
KNAK - Annapolis/Naval, Maryland, USA
Distance from station: S 30mi, 48km
Updated: Tue, 03-Mar-2015 5:54am EST
Clear
Clear
 Wind from N
Wind: N 5 mph , 7 km/h
Temperature: 28°F , -2°C
Wind Chill: 22°F , -6°C
Dew Point: 18°F , -8°C
Humidity: 64%
Barometer: 30.43 inHg , 1030.5 hPa
Clouds: Clear
Visibility: 10 miles , 16 km
2015/03/03 10:54 KNAK 031054Z AUTO 01004KT 10SM CLR M02/M08 A3043 RMK AO2 SLP307 T10171083
KW29 - Stevensville, Maryland, USA
Distance from station: SSE 31mi, 50km
Updated: Tue, 03-Mar-2015 5:58am EST

 Wind from calm
Wind: Calm
Temperature: 30°F , -1°C
Dew Point: 19°F , -7°C
Humidity: 64%
Barometer: 30.44 inHg , 1030.8 hPa
Visibility: 10 miles , 16 km
2015/03/03 10:58 KW29 031058Z AUTO 00000KT 10SM M01/M07 A3044 RMK AO1
 
KCGS - College Park, Maryland, USA
Distance from station: SW 38mi, 61km
Updated: Tue, 03-Mar-2015 5:55am EST
Clear
Clear
 Wind from calm
Wind: Calm
Temperature: 25°F , -4°C
Dew Point: 23°F , -5°C
Humidity: 93%
Barometer: 30.43 inHg , 1030.5 hPa
Clouds: Clear
Visibility: 10 miles , 16 km
2015/03/03 10:55 KCGS 031055Z AUTO 00000KT 10SM CLR M04/M05 A3043 RMK AO1
KGAI - Gaithersburg, Maryland, USA
Distance from station: WSW 40mi, 65km
Updated: Tue, 03-Mar-2015 5:55am EST
Clear
Clear
 Wind from calm
Wind: Calm
Temperature: 21°F , -6°C
Dew Point: 12°F , -11°C
Humidity: 68%
Barometer: 30.45 inHg , 1031.2 hPa
Clouds: Clear
Visibility: 10 miles , 16 km
2015/03/03 10:55 KGAI 031055Z AUTO 00000KT 10SM CLR M06/M11 A3045 RMK AO1
 
KTHV - York, Pennsylvania, USA
Distance from station: NNW 40mi, 65km
Updated: Tue, 03-Mar-2015 5:53am EST
Few Clouds
Few Clouds
 Wind from NE
Wind: NE 5 mph , 7 km/h
Temperature: 23°F , -5°C
Wind Chill: 17°F , -8°C
Dew Point: 10°F , -12°C
Humidity: 58%
Barometer: 30.41 inHg , 1029.8 hPa
Clouds: Few Clouds
Visibility: 10 miles , 16 km
Cloud details: Few Clouds 12000 ft
2015/03/03 10:53 KTHV 031053Z AUTO 05004KT 10SM FEW120 M05/M12 A3041 RMK AO2 SLP307 T10501117
KFDK - Frederick, Maryland, USA
Distance from station: W 47mi, 75km
Updated: Tue, 03-Mar-2015 5:25am EST
Clear
Clear
 Wind from calm
Wind: Calm
Temperature: 27°F , -3°C
Dew Point: 18°F , -8°C
Humidity: 69%
Barometer: 30.45 inHg , 1031.2 hPa
Clouds: Clear
Visibility: 10 miles , 16 km
2015/03/03 10:25 KFDK 031025Z AUTO 00000KT 10SM CLR M03/M08 A3045 RMK AO2
 
KESN - Easton/Newnam, Maryland, USA
Distance from station: SSE 48mi, 78km
Updated: Tue, 03-Mar-2015 5:51am EST
Clear
Clear
 Wind from NNE
Wind: NNE 5 mph , 7 km/h
Temperature: 28°F , -2°C
Wind Chill: 22°F , -6°C
Dew Point: 21°F , -6°C
Humidity: 74%
Barometer: 30.46 inHg , 1031.5 hPa
Clouds: Clear
Visibility: 10 miles , 16 km
2015/03/03 10:51 KESN 031051Z AUTO 03004KT 10SM CLR M02/M06 A3046 RMK AO2 T10211063
KDCA - Washington/Natl, Washington D.c., USA
Distance from station: SW 49mi, 79km
Updated: Tue, 03-Mar-2015 5:52am EST
Overcast
Overcast
 Wind from NE
Wind: NE 6 mph , 9 km/h
Temperature: 30°F , -1°C
Wind Chill: 24°F , -4°C
Dew Point: 16°F , -9°C
Humidity: 55%
Barometer: 30.45 inHg , 1031.2 hPa
Clouds: Overcast
Visibility: 10 miles , 16 km
Cloud details: Few Clouds 12000 ft
Overcast 20000 ft
2015/03/03 10:52 KDCA 031052Z 04005KT 10SM FEW120 OVC200 M01/M09 A3045 RMK AO2 SLP309 T10061089 $
 
KLNS - Lancaster, Pennsylvania, USA
Distance from station: N 49mi, 79km
Updated: Tue, 03-Mar-2015 5:53am EST
Clear
Clear
 Wind from calm
Wind: Calm
Temperature: 21°F , -6°C
Dew Point: 10°F , -12°C
Humidity: 63%
Barometer: 30.42 inHg , 1030.1 hPa
Clouds: Clear
Visibility: 10 miles , 16 km
2015/03/03 10:53 KLNS 031053Z AUTO 00000KT 10SM CLR M06/M12 A3042 RMK AO2 SLP306 T10611122
KILG - Wilmington, Delaware, USA
Distance from station: ENE 50mi, 81km
Updated: Tue, 03-Mar-2015 5:51am EST
Clear
Clear
 Wind from NE
Wind: NE 6 mph , 9 km/h
Temperature: 25°F , -4°C
Wind Chill: 18°F , -8°C
Dew Point: 12°F , -11°C
Humidity: 59%
Barometer: 30.43 inHg , 1030.5 hPa
Clouds: Clear
Visibility: 10 miles , 16 km
2015/03/03 10:51 KILG 031051Z 05005KT 10SM CLR M04/M11 A3043 RMK AO2 SLP306 T10391106